createdAt,value
2018-02-08T00:00:05.548Z,960.96
2018-02-08T00:15:04.921Z,960.93
2018-02-08T00:30:04.503Z,960.83
2018-02-08T00:45:04.661Z,960.91
2018-02-08T01:00:04.720Z,961.23
2018-02-08T01:15:05.162Z,961.41
2018-02-08T01:30:05.805Z,961.98
2018-02-08T01:45:05.308Z,961.95
2018-02-08T02:00:05.132Z,962
2018-02-08T02:15:05.174Z,962.54
2018-02-08T02:30:05.296Z,962.59
2018-02-08T02:45:05.384Z,962.67
2018-02-08T03:00:04.947Z,962.51
2018-02-08T03:15:05.855Z,962.46
2018-02-08T03:30:08.295Z,962.67
2018-02-08T03:45:07.744Z,962.83
2018-02-08T04:00:05.192Z,962.81
2018-02-08T04:15:04.659Z,962.99
2018-02-08T04:30:04.418Z,962.86
2018-02-08T04:45:06.456Z,962.99
2018-02-08T05:00:04.358Z,963.21
2018-02-08T05:15:07.891Z,963.32
2018-02-08T05:30:04.882Z,963.23
2018-02-08T05:45:08.349Z,963.29
2018-02-08T06:00:06.602Z,963.61
2018-02-08T06:15:05.203Z,963.69
2018-02-08T06:30:36.815Z,963.93
2018-02-08T06:45:06.348Z,964.44
2018-02-08T07:00:05.203Z,964.6
2018-02-08T07:15:06.159Z,964.73
2018-02-08T07:30:06.249Z,964.6
2018-02-08T07:45:05.125Z,964.79
2018-02-08T08:00:04.464Z,964.79
2018-02-08T08:15:04.779Z,964.87
2018-02-08T08:30:04.317Z,964.65
2018-02-08T08:45:04.665Z,964.6
2018-02-08T09:00:05.042Z,964.39
2018-02-08T09:15:04.403Z,964.15
2018-02-08T09:30:08.192Z,964.09
2018-02-08T09:45:04.546Z,964.12
2018-02-08T10:00:04.408Z,964.31
2018-02-08T10:15:04.830Z,964.06
2018-02-08T10:30:05.210Z,963.96
2018-02-08T10:45:04.605Z,963.93
2018-02-08T11:00:08.240Z,963.4
2018-02-08T11:15:05.178Z,963.02
2018-02-08T11:30:04.822Z,962.67
2018-02-08T11:45:05.153Z,962.75
2018-02-08T12:00:04.982Z,963.15
2018-02-08T12:15:08.077Z,963.05
2018-02-08T12:30:05.154Z,963.07
2018-02-08T12:45:04.458Z,962.57
2018-02-08T13:00:05.346Z,962.62
2018-02-08T13:15:08.252Z,962.35
2018-02-08T13:30:04.799Z,962.11
2018-02-08T13:45:04.632Z,961.79
2018-02-08T14:00:04.470Z,961.9
2018-02-08T14:15:07.977Z,961.79
2018-02-08T14:30:04.668Z,961.74
2018-02-08T14:45:08.160Z,961.79
2018-02-08T15:00:07.712Z,961.76
2018-02-08T15:15:05.226Z,961.87
2018-02-08T15:30:04.372Z,961.82
2018-02-08T15:45:20.478Z,962
2018-02-08T16:00:04.904Z,962.14
2018-02-08T16:15:05.256Z,962.49
2018-02-08T16:30:04.555Z,962.54
2018-02-08T16:45:05.030Z,962.59
2018-02-08T17:00:04.667Z,962.65
2018-02-08T17:15:05.459Z,962.73
2018-02-08T17:30:05.276Z,962.86
2018-02-08T17:45:04.655Z,963.26
2018-02-08T18:00:04.512Z,963.48
2018-02-08T18:15:06.043Z,963.42
2018-02-08T18:30:08.312Z,963.5
2018-02-08T18:45:05.267Z,963.23
2018-02-08T19:00:04.690Z,963.64
2018-02-08T19:15:05.117Z,963.8
2018-02-08T19:30:06.263Z,963.77
2018-02-08T19:45:04.590Z,963.74
2018-02-08T20:00:04.457Z,963.61
2018-02-08T20:15:05.912Z,963.56
2018-02-08T20:30:04.577Z,963.48
2018-02-08T20:45:06.134Z,963.66
2018-02-08T21:00:05.031Z,963.9
2018-02-08T21:15:11.028Z,963.69
2018-02-08T21:30:06.715Z,963.74
2018-02-08T21:45:05.972Z,963.5
2018-02-08T22:00:05.616Z,963.61
2018-02-08T22:15:04.672Z,963.29
2018-02-08T22:30:05.367Z,963.37
2018-02-08T22:45:05.540Z,963.26
2018-02-08T23:00:05.618Z,963.26
2018-02-08T23:15:05.412Z,963.58
2018-02-08T23:30:05.158Z,963.69
2018-02-08T23:45:04.630Z,963.58
